KSFZ/SFZ METAR and TAF weather

Enter ICAO airport designator
Station Type Date Time Source
KSFZ METAR 2022/05/23 14:56 UTC NOAA

KSFZ 231456Z AUTO 03009KT 10SM CLR 19/09 A3018 RMK AO2 SLP217 T01890089 53012 $


Station Type Date Time Source
KSFZ Decoded METAR 2022/05/23 14:56 UTC NOAA

Pawtucket, North Central State Airport, RI, United States (KSFZ) 41-55N 071-30W
May 23, 2022 - 10:56 AM EDT / 2022.05.23 1456 UTC
Wind: from the NNE (030 degrees) at 10 MPH (9 KT):0
Visibility: 10 mile(s):0
Sky conditions: clear
Temperature: 66.0 F (18.9 C)
Dew Point: 48.0 F (8.9 C)
Relative Humidity: 52%
Pressure (altimeter): 30.18 in. Hg (1022 hPa)
Pressure tendency: 0.04 inches (1.2 hPa) higher than three hours ago
ob: KSFZ 231456Z AUTO 03009KT 10SM CLR 19/09 A3018 RMK AO2 SLP217 T01890089 53012
cycle: 15

Station Type Date Time Source
KSFZ TAF UTC NOAA

Error!

Example: see airport list